createdAt,value
2018-12-16T00:02:32.944Z,25.20
2018-12-16T00:06:35.877Z,24.63
2018-12-16T00:10:38.762Z,23.53
2018-12-16T00:14:41.977Z,27.13
2018-12-16T00:18:44.969Z,23.30
2018-12-16T00:22:48.369Z,27.23
2018-12-16T00:26:56.989Z,25.67
2018-12-16T00:31:00.027Z,21.80
2018-12-16T00:35:03.445Z,19.83
2018-12-16T00:39:06.317Z,23.60
2018-12-16T00:43:09.193Z,18.10
2018-12-16T00:47:12.227Z,20.97
2018-12-16T00:51:15.463Z,23.73
2018-12-16T00:55:18.462Z,23.37
2018-12-16T00:59:21.423Z,23.57
2018-12-16T01:03:24.553Z,18.77
2018-12-16T01:07:27.705Z,20.20
2018-12-16T01:11:30.909Z,22.77
2018-12-16T01:15:34.041Z,23.73
2018-12-16T01:19:37.013Z,21.47
2018-12-16T01:23:39.990Z,21.97
2018-12-16T01:27:43.229Z,19.90
2018-12-16T01:31:46.106Z,20.97
2018-12-16T01:35:49.310Z,33.70
2018-12-16T01:39:52.177Z,23.50
2018-12-16T01:43:55.037Z,22.10
2018-12-16T01:47:58.189Z,19.67
2018-12-16T01:52:01.228Z,22.27
2018-12-16T01:56:04.505Z,18.83
2018-12-16T02:00:08.189Z,22.10
2018-12-16T02:04:11.348Z,20.47
2018-12-16T02:08:14.493Z,20.73
2018-12-16T02:12:17.445Z,18.50
2018-12-16T02:16:20.325Z,20.50
2018-12-16T02:20:23.546Z,22.77
2018-12-16T02:24:26.418Z,18.23
2018-12-16T02:28:29.392Z,23.00
2018-12-16T02:32:32.485Z,19.73
2018-12-16T02:36:35.425Z,25.10
2018-12-16T02:40:38.578Z,18.20
2018-12-16T02:44:41.453Z,20.30
2018-12-16T02:48:44.321Z,20.93
2018-12-16T02:52:47.209Z,22.20
2018-12-16T02:56:50.205Z,20.60
2018-12-16T03:00:53.174Z,19.50
2018-12-16T03:04:56.051Z,21.67
2018-12-16T03:08:59.130Z,21.37
2018-12-16T03:13:02.271Z,20.90
2018-12-16T03:17:05.218Z,20.23
2018-12-16T03:21:08.366Z,20.27
2018-12-16T03:25:11.322Z,24.03
2018-12-16T03:29:14.214Z,20.63
2018-12-16T03:33:17.303Z,21.63
2018-12-16T03:37:20.383Z,25.17
2018-12-16T03:41:23.341Z,26.93
2018-12-16T03:45:26.270Z,22.30
2018-12-16T03:49:29.161Z,25.40
2018-12-16T03:53:32.038Z,28.17
2018-12-16T03:57:35.264Z,26.03
2018-12-16T04:01:38.491Z,25.63
2018-12-16T04:05:41.566Z,20.47
2018-12-16T04:09:44.713Z,18.13
2018-12-16T04:13:47.589Z,29.17
2018-12-16T04:17:50.465Z,26.10
2018-12-16T04:21:53.727Z,24.00
2018-12-16T04:25:56.794Z,25.07
2018-12-16T04:29:59.681Z,19.37
2018-12-16T04:34:02.617Z,22.57
2018-12-16T04:38:05.709Z,27.37
2018-12-16T04:42:08.573Z,23.17
2018-12-16T04:46:11.714Z,24.17
2018-12-16T04:50:14.865Z,23.63
2018-12-16T04:54:17.941Z,23.07
2018-12-16T04:58:21.085Z,25.53
2018-12-16T05:02:24.197Z,21.30
2018-12-16T05:06:27.349Z,24.63
2018-12-16T05:10:30.582Z,20.70
2018-12-16T05:14:33.446Z,23.87
2018-12-16T05:18:36.485Z,21.40
2018-12-16T05:22:39.577Z,22.50
2018-12-16T05:26:42.457Z,23.30
2018-12-16T05:30:45.351Z,21.13
2018-12-16T05:34:48.313Z,20.53
2018-12-16T05:38:51.201Z,26.03
2018-12-16T05:42:54.083Z,25.30
2018-12-16T05:46:57.154Z,22.47
2018-12-16T05:51:00.033Z,21.40
2018-12-16T05:55:02.988Z,23.00
2018-12-16T05:59:05.880Z,23.90
2018-12-16T06:03:08.873Z,24.00
2018-12-16T06:07:12.056Z,21.47
2018-12-16T06:11:15.214Z,23.83
2018-12-16T06:15:18.313Z,22.77
2018-12-16T06:19:21.325Z,23.10
2018-12-16T06:23:24.806Z,22.70
2018-12-16T06:27:27.949Z,24.90
2018-12-16T06:31:31.134Z,22.63
2018-12-16T06:35:33.989Z,23.10
2018-12-16T06:39:36.861Z,27.17
2018-12-16T06:43:39.729Z,21.87
2018-12-16T06:47:42.605Z,24.07
2018-12-16T06:51:45.685Z,26.40
2018-12-16T06:55:48.712Z,28.13
2018-12-16T06:59:51.861Z,21.80
2018-12-16T07:03:55.010Z,21.30
2018-12-16T07:07:57.874Z,25.80
2018-12-16T07:12:00.789Z,24.63
2018-12-16T07:16:03.798Z,25.67
2018-12-16T07:20:07.025Z,23.30
2018-12-16T07:24:09.933Z,22.53
2018-12-16T07:28:12.870Z,26.90
2018-12-16T07:32:15.804Z,24.97
2018-12-16T07:36:18.741Z,27.40
2018-12-16T07:40:21.669Z,23.37
2018-12-16T07:44:24.561Z,26.90
2018-12-16T07:48:27.438Z,25.90
2018-12-16T07:52:30.453Z,24.67
2018-12-16T07:56:33.389Z,27.30
2018-12-16T08:00:38.186Z,23.60
2018-12-16T08:04:41.217Z,27.73
2018-12-16T08:08:44.107Z,30.67
2018-12-16T08:12:47.010Z,27.40
2018-12-16T08:16:49.912Z,25.63
2018-12-16T08:20:52.799Z,24.63
2018-12-16T08:24:55.933Z,32.07
2018-12-16T08:28:58.813Z,26.03
2018-12-16T08:33:01.751Z,33.50
2018-12-16T08:37:05.014Z,36.33
2018-12-16T08:41:08.254Z,36.87
2018-12-16T08:45:11.342Z,30.97
2018-12-16T08:49:14.451Z,30.43
2018-12-16T08:53:17.549Z,28.93
2018-12-16T08:57:20.680Z,29.77
2018-12-16T09:01:23.792Z,32.70
2018-12-16T09:05:26.697Z,29.20
2018-12-16T09:09:30.157Z,33.27
2018-12-16T09:13:33.063Z,30.07
2018-12-16T09:17:35.933Z,29.13
2018-12-16T09:21:39.064Z,31.53
2018-12-16T09:25:42.251Z,32.30
2018-12-16T09:29:45.152Z,38.37
2018-12-16T09:33:48.061Z,35.23
2018-12-16T09:37:51.178Z,32.40
2018-12-16T09:41:54.081Z,35.93
2018-12-16T09:45:57.677Z,30.73
2018-12-16T09:50:00.573Z,34.17
2018-12-16T09:54:03.541Z,37.53
2018-12-16T09:58:06.746Z,36.57
2018-12-16T10:02:09.636Z,37.60
2018-12-16T10:06:12.517Z,40.70
2018-12-16T10:10:15.481Z,39.33
2018-12-16T10:14:18.676Z,44.97
2018-12-16T10:18:21.573Z,41.13
2018-12-16T10:22:24.772Z,52.60
2018-12-16T10:26:27.784Z,46.00
2018-12-16T10:30:30.732Z,39.20
2018-12-16T10:34:33.960Z,47.90
2018-12-16T10:38:36.873Z,50.13
2018-12-16T10:42:39.778Z,44.87
2018-12-16T10:46:42.910Z,42.53
2018-12-16T10:50:46.194Z,42.63
2018-12-16T10:54:49.079Z,48.10
2018-12-16T10:58:52.229Z,40.80
2018-12-16T11:02:55.171Z,45.43
2018-12-16T11:06:58.082Z,49.47
2018-12-16T11:11:01.169Z,50.97
2018-12-16T11:15:04.656Z,49.77
2018-12-16T11:19:07.948Z,45.90
2018-12-16T11:23:11.083Z,48.00
2018-12-16T11:27:14.191Z,47.40
2018-12-16T11:31:17.160Z,49.47
2018-12-16T11:35:20.158Z,47.60
2018-12-16T11:39:23.288Z,58.50
2018-12-16T11:43:26.449Z,62.73
2018-12-16T11:47:29.365Z,50.93
2018-12-16T11:51:32.445Z,54.83
2018-12-16T11:55:35.728Z,58.80
2018-12-16T11:59:38.682Z,53.00
2018-12-16T12:03:41.595Z,53.27
2018-12-16T12:07:44.554Z,52.80
2018-12-16T12:11:47.474Z,59.37
2018-12-16T12:15:50.615Z,57.70
2018-12-16T12:19:53.800Z,74.90
2018-12-16T12:23:57.061Z,54.93
2018-12-16T12:28:00.174Z,56.10
2018-12-16T12:32:03.332Z,56.97
2018-12-16T12:36:06.578Z,55.73
2018-12-16T12:40:09.821Z,62.23
2018-12-16T12:44:12.796Z,69.10
2018-12-16T12:48:15.910Z,62.37
2018-12-16T12:52:18.798Z,55.10
2018-12-16T12:56:21.698Z,53.23
2018-12-16T13:00:25.696Z,55.00
2018-12-16T13:04:28.978Z,53.80
2018-12-16T13:08:32.146Z,51.30
2018-12-16T13:12:35.290Z,63.00
2018-12-16T13:16:38.393Z,61.80
2018-12-16T13:20:41.436Z,54.33
2018-12-16T13:24:49.980Z,66.77
2018-12-16T13:28:53.129Z,55.37
2018-12-16T13:32:56.225Z,55.20
2018-12-16T13:36:59.121Z,66.37
2018-12-16T13:41:02.069Z,56.57
2018-12-16T13:45:05.677Z,62.17
2018-12-16T13:49:08.663Z,68.37
2018-12-16T13:53:11.550Z,59.07
2018-12-16T13:57:14.662Z,57.03
2018-12-16T14:01:18.398Z,59.80
2018-12-16T14:05:21.553Z,55.03
2018-12-16T14:09:24.416Z,60.20
2018-12-16T14:13:27.511Z,51.93
2018-12-16T14:17:30.444Z,47.30
2018-12-16T14:21:33.421Z,51.23
2018-12-16T14:25:36.560Z,53.13
2018-12-16T14:29:39.641Z,56.60
2018-12-16T14:33:42.613Z,57.47
2018-12-16T14:37:45.605Z,55.00
2018-12-16T14:41:48.465Z,55.37
2018-12-16T14:45:51.341Z,58.67
2018-12-16T14:49:54.490Z,50.47
2018-12-16T14:53:57.718Z,57.17
2018-12-16T14:58:00.626Z,58.87
2018-12-16T15:02:03.846Z,57.83
2018-12-16T15:06:06.881Z,56.00
2018-12-16T15:10:10.293Z,49.73
2018-12-16T15:14:13.149Z,51.03
2018-12-16T15:18:16.250Z,57.00
2018-12-16T15:22:19.121Z,57.07
2018-12-16T15:26:22.098Z,55.83
2018-12-16T15:30:25.336Z,49.43
2018-12-16T15:34:28.409Z,56.70
2018-12-16T15:38:31.571Z,55.20
2018-12-16T15:42:34.588Z,51.87
2018-12-16T15:46:37.672Z,54.60
2018-12-16T15:50:40.635Z,45.83
2018-12-16T15:54:43.494Z,48.57
2018-12-16T15:58:46.434Z,46.03
2018-12-16T16:02:49.310Z,41.73
2018-12-16T16:06:52.193Z,39.20
2018-12-16T16:10:55.146Z,47.50
2018-12-16T16:14:58.021Z,47.90
2018-12-16T16:19:01.187Z,40.07
2018-12-16T16:23:04.221Z,51.90
2018-12-16T16:27:07.295Z,38.13
2018-12-16T16:31:10.649Z,44.10
2018-12-16T16:35:13.573Z,42.07
2018-12-16T16:39:16.485Z,38.90
2018-12-16T16:43:19.565Z,45.53
2018-12-16T16:47:22.444Z,47.63
2018-12-16T16:51:25.389Z,44.47
2018-12-16T16:55:28.571Z,51.03
2018-12-16T16:59:31.517Z,55.47
2018-12-16T17:03:34.833Z,52.53
2018-12-16T17:07:37.701Z,36.73
2018-12-16T17:11:40.644Z,48.53
2018-12-16T17:15:43.725Z,47.03
2018-12-16T17:19:46.691Z,45.17
2018-12-16T17:23:49.561Z,46.40
2018-12-16T17:27:52.598Z,45.53
2018-12-16T17:31:55.749Z,42.90
2018-12-16T17:35:58.693Z,43.23
2018-12-16T17:40:01.664Z,45.33
2018-12-16T17:44:05.009Z,40.03
2018-12-16T17:48:07.881Z,46.53
2018-12-16T17:52:11.164Z,40.80
2018-12-16T17:56:14.038Z,39.20
2018-12-16T18:00:17.073Z,55.77
2018-12-16T18:04:20.155Z,43.43
2018-12-16T18:08:23.137Z,46.90
2018-12-16T18:12:26.169Z,48.73
2018-12-16T18:16:29.201Z,46.80
2018-12-16T18:20:32.373Z,47.37
2018-12-16T18:24:35.250Z,43.20
2018-12-16T18:28:38.333Z,48.07
2018-12-16T18:32:41.506Z,47.43
2018-12-16T18:36:44.377Z,45.87
2018-12-16T18:40:47.484Z,43.17
2018-12-16T18:44:50.481Z,54.90
2018-12-16T18:48:53.356Z,44.07
2018-12-16T18:52:56.494Z,48.23
2018-12-16T18:56:59.650Z,46.20
2018-12-16T19:01:02.595Z,40.13
2018-12-16T19:05:05.653Z,51.23
2018-12-16T19:09:08.865Z,42.27
2018-12-16T19:13:11.793Z,47.10
2018-12-16T19:17:14.665Z,42.50
2018-12-16T19:21:17.893Z,46.87
2018-12-16T19:25:20.829Z,43.63
2018-12-16T19:29:23.937Z,42.87
2018-12-16T19:33:26.813Z,48.57
2018-12-16T19:37:29.697Z,42.07
2018-12-16T19:41:32.593Z,48.00
2018-12-16T19:45:35.789Z,47.07
2018-12-16T19:49:38.656Z,43.83
2018-12-16T19:53:41.545Z,43.37
2018-12-16T19:57:44.625Z,41.77
2018-12-16T20:01:47.790Z,53.20
2018-12-16T20:05:56.233Z,46.00
2018-12-16T20:09:59.118Z,44.63
2018-12-16T20:14:02.190Z,44.67
2018-12-16T20:18:05.414Z,40.83
2018-12-16T20:22:08.493Z,43.33
2018-12-16T20:26:11.585Z,44.23
2018-12-16T20:30:14.665Z,47.57
2018-12-16T20:34:17.549Z,45.03
2018-12-16T20:38:20.958Z,46.37
2018-12-16T20:42:23.854Z,41.53
2018-12-16T20:46:26.929Z,42.67
2018-12-16T20:50:29.839Z,41.43
2018-12-16T20:54:32.710Z,42.60
2018-12-16T20:58:35.925Z,41.43
2018-12-16T21:02:38.913Z,42.70
2018-12-16T21:06:41.805Z,41.77
2018-12-16T21:10:44.746Z,39.33
2018-12-16T21:14:53.349Z,43.83
2018-12-16T21:18:56.637Z,33.80
2018-12-16T21:22:59.560Z,41.33
2018-12-16T21:27:02.899Z,38.03
2018-12-16T21:31:05.934Z,31.87
2018-12-16T21:35:08.918Z,41.10
2018-12-16T21:39:12.003Z,34.70
2018-12-16T21:43:14.893Z,30.83
2018-12-16T21:47:17.791Z,30.37
2018-12-16T21:51:20.737Z,34.60
2018-12-16T21:55:23.902Z,28.77
2018-12-16T21:59:26.968Z,36.07
2018-12-16T22:03:30.044Z,37.67
2018-12-16T22:07:33.209Z,33.40
2018-12-16T22:11:36.197Z,32.40
2018-12-16T22:15:39.068Z,31.43
2018-12-16T22:19:41.945Z,33.33
2018-12-16T22:23:44.820Z,32.10
2018-12-16T22:27:47.701Z,31.70
2018-12-16T22:31:50.569Z,27.10
2018-12-16T22:35:53.662Z,31.43
2018-12-16T22:39:56.700Z,39.80
2018-12-16T22:43:59.806Z,29.53
2018-12-16T22:48:02.945Z,37.40
2018-12-16T22:52:05.910Z,34.87
2018-12-16T22:56:09.046Z,33.03
2018-12-16T23:00:16.337Z,32.80
2018-12-16T23:04:19.489Z,33.30
2018-12-16T23:08:22.445Z,30.70
2018-12-16T23:12:25.589Z,29.40
2018-12-16T23:16:28.538Z,31.17
2018-12-16T23:20:31.693Z,39.70
2018-12-16T23:24:34.945Z,32.03
2018-12-16T23:28:38.037Z,27.17
2018-12-16T23:32:41.070Z,25.77
2018-12-16T23:36:43.928Z,31.07
2018-12-16T23:40:47.013Z,30.60
2018-12-16T23:44:49.896Z,31.60
2018-12-16T23:48:52.793Z,33.17
2018-12-16T23:52:55.950Z,27.73
2018-12-16T23:56:59.190Z,35.30
